Fernando Pessoa — CSKQ — position and weather

sailwx.info

Track history (hours):
 
Tides and Currents Weather Stations Pressure Air Temp Water Temp Dewpoint Dewpoint Depression Visibility Wind Speed Wind Dir Waves Ship Positions

Fernando Pessoa

Last reported at 2014-Nov-28 21:33 UTC. Time now 2014-Nov-29 01:20 UTC.
Position N 38°39' W 009°05'.

Length 49 m.

MMSI: 263701470.

Date/timePositionNaut miles runAvg speedWind from/ knotsBaromVisibWave heightAir tempDewpointWater temp
2014-Nov-28 21:33N 38°39' W 009°05'0 0.0
2014-Nov-28 20:33N 38°39' W 009°05'3 3.3
2014-Nov-28 19:34N 38°41' W 009°08'1 1.5
2014-Nov-28 18:33N 38°40' W 009°07'2 2.0
2014-Nov-28 17:33N 38°39' W 009°05'0 0.0
2014-Nov-28 16:34N 38°39' W 009°05'0 0.0
2014-Nov-28 15:33N 38°39' W 009°05'0 0.0
2014-Nov-28 12:11N 38°39' W 009°05'0 0.0
2014-Nov-28 11:34N 38°39' W 009°05'2 1.7
2014-Nov-28 10:34N 38°40' W 009°07'0 0.3
2014-Nov-28 09:34N 38°40' W 009°06'0 0.4
2014-Nov-28 08:33N 38°40' W 009°07'2 1.9
2014-Nov-28 07:33N 38°39' W 009°05'0 0.0
2014-Nov-28 06:33N 38°39' W 009°05'0 0.0
2014-Nov-28 05:33N 38°39' W 009°05'0 0.0
2014-Nov-28 00:04N 38°39' W 009°05'4 7.6
2014-Nov-27 23:34N 38°42' W 009°08'1 1.2
2014-Nov-27 22:33N 38°41' W 009°08'0 0.1
2014-Nov-27 21:34N 38°41' W 009°08'3 2.9
2014-Nov-27 20:33N 38°39' W 009°05'0 0.0
2014-Nov-27 19:33N 38°39' W 009°05'0 0.1
2014-Nov-27 18:34N 38°39' W 009°05'1 1.0
2014-Nov-27 17:33N 38°39' W 009°06'1 1.0
2014-Nov-27 16:33N 38°39' W 009°05'0 0.0
2014-Nov-27 10:14N 38°39' W 009°05'4 5.7
2014-Nov-27 09:33N 38°42' W 009°08'0 0.2
2014-Nov-27 08:33N 38°42' W 009°08'0 0.0
2014-Nov-27 07:33N 38°42' W 009°08'4 0.4
2014-Nov-26 21:34N 38°39' W 009°05'0 0.0
2014-Nov-26 20:33N 38°39' W 009°05'4 3.8
2014-Nov-26 19:33N 38°42' W 009°08'2 1.9
2014-Nov-26 18:34N 38°40' W 009°07'2 2.2
2014-Nov-26 17:33N 38°39' W 009°05'0 0.0
2014-Nov-26 16:34N 38°39' W 009°05'0 0.0
2014-Nov-26 15:33N 38°39' W 009°05'1 0.2
2014-Nov-26 09:33N 38°40' W 009°06'3 2.9
2014-Nov-26 08:34N 38°42' W 009°08'0 0.2
2014-Nov-26 07:34N 38°42' W 009°08'4 0.4
2014-Nov-25 21:21N 38°39' W 009°05'4 4.5
2014-Nov-25 20:34N 38°42' W 009°08'3 2.6
2014-Nov-25 19:34N 38°40' W 009°06'3 2.9
2014-Nov-25 18:34N 38°42' W 009°08'0 0.2
2014-Nov-25 17:34N 38°42' W 009°08'1 1.1
2014-Nov-25 16:33N 38°41' W 009°07'3 3.1
2014-Nov-25 15:33N 38°39' W 009°05'2 2.0
2014-Nov-25 14:34N 38°40' W 009°07'0 0.2
2014-Nov-25 13:34N 38°40' W 009°07'2 1.6
2014-Nov-25 12:34N 38°39' W 009°05'0 0.0
2014-Nov-25 11:33N 38°39' W 009°05'3 2.7
2014-Nov-25 10:34N 38°41' W 009°08'3 2.8
2014-Nov-25 09:33N 38°39' W 009°05'1 1.1
2014-Nov-25 08:33N 38°40' W 009°06'3 3.1
2014-Nov-25 07:33N 38°42' W 009°08'0 0.2
2014-Nov-25 06:34N 38°42' W 009°08'0 0.0
2014-Nov-25 05:33N 38°42' W 009°08'4 4.2
2014-Nov-25 04:33N 38°39' W 009°05'0 0.0
2014-Nov-25 03:33N 38°39' W 009°05'0 0.0
2014-Nov-25 02:33N 38°39' W 009°05'0 0.5
2014-Nov-25 01:34N 38°39' W 009°05'0 0.0
2014-Nov-25 00:34N 38°39' W 009°05'0 0.0
2014-Nov-24 23:34N 38°39' W 009°05'1 1.4
2014-Nov-24 22:34N 38°40' W 009°07'0 0.0
2014-Nov-24 21:34N 38°40' W 009°07'2 1.8
2014-Nov-24 20:33N 38°39' W 009°05'0 0.0
2014-Nov-24 19:33N 38°39' W 009°05'1 1.0
2014-Nov-24 18:34N 38°39' W 009°06'3 2.9
2014-Nov-24 17:34N 38°42' W 009°08'4 3.6
2014-Nov-24 16:34N 38°39' W 009°05'1 0.1
2014-Nov-24 09:33N 38°39' W 009°06'3 2.9
2014-Nov-24 08:33N 38°42' W 009°08'0 0.4
2014-Nov-24 07:34N 38°42' W 009°08'4 0.1
2014-Nov-22 16:12N 38°39' W 009°05'0 0.0
2014-Nov-21 21:24N 38°39' W 009°05'3 3.6
2014-Nov-21 20:33N 38°41' W 009°08'2 2.1
2014-Nov-21 19:34N 38°40' W 009°06'3 3.1
2014-Nov-21 18:34N 38°42' W 009°08'0 0.1
2014-Nov-21 17:34N 38°42' W 009°08'1 0.9
2014-Nov-21 16:33N 38°41' W 009°08'3 3.4
2014-Nov-21 15:33N 38°39' W 009°05'2 1.9
2014-Nov-21 14:33N 38°40' W 009°07'0 0.3
2014-Nov-21 13:34N 38°40' W 009°06'1 1.5
2014-Nov-21 12:33N 38°39' W 009°05'0 0.0
2014-Nov-21 11:34N 38°39' W 009°05'3 2.7
2014-Nov-21 10:34N 38°41' W 009°08'3 2.8
2014-Nov-21 09:33N 38°39' W 009°05'1 0.6
2014-Nov-21 08:34N 38°39' W 009°05'3 3.2
2014-Nov-21 07:34N 38°42' W 009°08'1 0.6
2014-Nov-21 06:34N 38°42' W 009°08'0 0.1
2014-Nov-21 05:34N 38°42' W 009°08'4 4.1
2014-Nov-21 04:34N 38°39' W 009°05'0 0.0
2014-Nov-21 03:33N 38°39' W 009°05'0 0.0
2014-Nov-21 02:34N 38°39' W 009°05'0 0.4
2014-Nov-21 01:34N 38°39' W 009°05'0 0.2
2014-Nov-21 00:33N 38°39' W 009°05'0 0.3
2014-Nov-20 23:33N 38°39' W 009°05'1 1.1
2014-Nov-20 22:34N 38°40' W 009°06'0 0.1
2014-Nov-20 21:34N 38°40' W 009°07'2 1.7
2014-Nov-20 20:33N 38°39' W 009°05'0 0.0
2014-Nov-20 19:33N 38°39' W 009°05'1 1.3
2014-Nov-20 18:34N 38°40' W 009°06'3 2.7
2014-Nov-20 17:33N 38°42' W 009°08'4 3.7
2014-Nov-20 16:33N 38°39' W 009°05'1 0.1
2014-Nov-20 09:33N 38°40' W 009°06'3 3.0
2014-Nov-20 08:33N 38°42' W 009°08'0 0.3
2014-Nov-20 07:34N 38°42' W 009°08'4 0.4
2014-Nov-19 21:20N 38°39' W 009°05'3 4.3
2014-Nov-19 20:34N 38°42' W 009°08'1 0.6
2014-Nov-19 19:33N 38°42' W 009°08'0 0.2
2014-Nov-19 18:34N 38°42' W 009°08'2 2.3
2014-Nov-19 17:34N 38°40' W 009°07'2 1.6
2014-Nov-19 16:34N 38°39' W 009°06'1 0.7
2014-Nov-19 15:34N 38°40' W 009°06'1 1.3
2014-Nov-19 14:33N 38°39' W 009°05'0 0.0
2014-Nov-19 13:33N 38°39' W 009°05'0 0.0
2014-Nov-19 12:33N 38°39' W 009°05'0 0.0
2014-Nov-19 11:33N 38°39' W 009°05'1 1.1
2014-Nov-19 10:34N 38°40' W 009°06'0 0.0
2014-Nov-19 09:33N 38°40' W 009°06'1 0.6
2014-Nov-19 08:33N 38°40' W 009°07'2 1.8
2014-Nov-19 07:33N 38°39' W 009°05'0 0.0
2014-Nov-19 06:34N 38°39' W 009°05'0 0.0
2014-Nov-19 00:10N 38°39' W 009°05'4 6.5
2014-Nov-18 23:34N 38°42' W 009°08'1 1.3
2014-Nov-18 22:33N 38°41' W 009°08'0 0.1
2014-Nov-18 21:34N 38°41' W 009°08'  
Track history (hours):
 
Tides and Currents Weather Stations Pressure Air Temp Water Temp Dewpoint Dewpoint Depression Visibility Wind Speed Wind Dir Waves Ship Positions

Fernando Pessoa

Last reported at 2014-Nov-28 21:33 UTC. Time now 2014-Nov-29 01:20 UTC.
Position N 38°39' W 009°05'.

Length 49 m.

MMSI: 263701470.

Date/timePositionNaut miles runAvg speedWind from/ knotsBaromVisibWave heightAir tempDewpointWater temp
2014-Nov-28 21:33N 38°39' W 009°05'0 0.0
2014-Nov-28 20:33N 38°39' W 009°05'3 3.3
2014-Nov-28 19:34N 38°41' W 009°08'1 1.5
2014-Nov-28 18:33N 38°40' W 009°07'2 2.0
2014-Nov-28 17:33N 38°39' W 009°05'0 0.0
2014-Nov-28 16:34N 38°39' W 009°05'0 0.0
2014-Nov-28 15:33N 38°39' W 009°05'0 0.0
2014-Nov-28 12:11N 38°39' W 009°05'0 0.0
2014-Nov-28 11:34N 38°39' W 009°05'2 1.7
2014-Nov-28 10:34N 38°40' W 009°07'0 0.3
2014-Nov-28 09:34N 38°40' W 009°06'0 0.4
2014-Nov-28 08:33N 38°40' W 009°07'2 1.9
2014-Nov-28 07:33N 38°39' W 009°05'0 0.0
2014-Nov-28 06:33N 38°39' W 009°05'0 0.0
2014-Nov-28 05:33N 38°39' W 009°05'0 0.0
2014-Nov-28 00:04N 38°39' W 009°05'4 7.6
2014-Nov-27 23:34N 38°42' W 009°08'1 1.2
2014-Nov-27 22:33N 38°41' W 009°08'0 0.1
2014-Nov-27 21:34N 38°41' W 009°08'3 2.9
2014-Nov-27 20:33N 38°39' W 009°05'0 0.0
2014-Nov-27 19:33N 38°39' W 009°05'0 0.1
2014-Nov-27 18:34N 38°39' W 009°05'1 1.0
2014-Nov-27 17:33N 38°39' W 009°06'1 1.0
2014-Nov-27 16:33N 38°39' W 009°05'0 0.0
2014-Nov-27 10:14N 38°39' W 009°05'4 5.7
2014-Nov-27 09:33N 38°42' W 009°08'0 0.2
2014-Nov-27 08:33N 38°42' W 009°08'0 0.0
2014-Nov-27 07:33N 38°42' W 009°08'4 0.4
2014-Nov-26 21:34N 38°39' W 009°05'0 0.0
2014-Nov-26 20:33N 38°39' W 009°05'4 3.8
2014-Nov-26 19:33N 38°42' W 009°08'2 1.9
2014-Nov-26 18:34N 38°40' W 009°07'2 2.2
2014-Nov-26 17:33N 38°39' W 009°05'0 0.0
2014-Nov-26 16:34N 38°39' W 009°05'0 0.0
2014-Nov-26 15:33N 38°39' W 009°05'1 0.2
2014-Nov-26 09:33N 38°40' W 009°06'3 2.9
2014-Nov-26 08:34N 38°42' W 009°08'0 0.2
2014-Nov-26 07:34N 38°42' W 009°08'4 0.4
2014-Nov-25 21:21N 38°39' W 009°05'4 4.5
2014-Nov-25 20:34N 38°42' W 009°08'3 2.6
2014-Nov-25 19:34N 38°40' W 009°06'3 2.9
2014-Nov-25 18:34N 38°42' W 009°08'0 0.2
2014-Nov-25 17:34N 38°42' W 009°08'1 1.1
2014-Nov-25 16:33N 38°41' W 009°07'3 3.1
2014-Nov-25 15:33N 38°39' W 009°05'2 2.0
2014-Nov-25 14:34N 38°40' W 009°07'0 0.2
2014-Nov-25 13:34N 38°40' W 009°07'2 1.6
2014-Nov-25 12:34N 38°39' W 009°05'0 0.0
2014-Nov-25 11:33N 38°39' W 009°05'3 2.7
2014-Nov-25 10:34N 38°41' W 009°08'3 2.8
2014-Nov-25 09:33N 38°39' W 009°05'1 1.1
2014-Nov-25 08:33N 38°40' W 009°06'3 3.1
2014-Nov-25 07:33N 38°42' W 009°08'0 0.2
2014-Nov-25 06:34N 38°42' W 009°08'0 0.0
2014-Nov-25 05:33N 38°42' W 009°08'4 4.2
2014-Nov-25 04:33N 38°39' W 009°05'0 0.0
2014-Nov-25 03:33N 38°39' W 009°05'0 0.0
2014-Nov-25 02:33N 38°39' W 009°05'0 0.5
2014-Nov-25 01:34N 38°39' W 009°05'0 0.0
2014-Nov-25 00:34N 38°39' W 009°05'0 0.0
2014-Nov-24 23:34N 38°39' W 009°05'1 1.4
2014-Nov-24 22:34N 38°40' W 009°07'0 0.0
2014-Nov-24 21:34N 38°40' W 009°07'2 1.8
2014-Nov-24 20:33N 38°39' W 009°05'0 0.0
2014-Nov-24 19:33N 38°39' W 009°05'1 1.0
2014-Nov-24 18:34N 38°39' W 009°06'3 2.9
2014-Nov-24 17:34N 38°42' W 009°08'4 3.6
2014-Nov-24 16:34N 38°39' W 009°05'1 0.1
2014-Nov-24 09:33N 38°39' W 009°06'3 2.9
2014-Nov-24 08:33N 38°42' W 009°08'0 0.4
2014-Nov-24 07:34N 38°42' W 009°08'4 0.1
2014-Nov-22 16:12N 38°39' W 009°05'0 0.0
2014-Nov-21 21:24N 38°39' W 009°05'3 3.6
2014-Nov-21 20:33N 38°41' W 009°08'2 2.1
2014-Nov-21 19:34N 38°40' W 009°06'3 3.1
2014-Nov-21 18:34N 38°42' W 009°08'0 0.1
2014-Nov-21 17:34N 38°42' W 009°08'1 0.9
2014-Nov-21 16:33N 38°41' W 009°08'3 3.4
2014-Nov-21 15:33N 38°39' W 009°05'2 1.9
2014-Nov-21 14:33N 38°40' W 009°07'0 0.3
2014-Nov-21 13:34N 38°40' W 009°06'1 1.5
2014-Nov-21 12:33N 38°39' W 009°05'0 0.0
2014-Nov-21 11:34N 38°39' W 009°05'3 2.7
2014-Nov-21 10:34N 38°41' W 009°08'3 2.8
2014-Nov-21 09:33N 38°39' W 009°05'1 0.6
2014-Nov-21 08:34N 38°39' W 009°05'3 3.2
2014-Nov-21 07:34N 38°42' W 009°08'1 0.6
2014-Nov-21 06:34N 38°42' W 009°08'0 0.1
2014-Nov-21 05:34N 38°42' W 009°08'4 4.1
2014-Nov-21 04:34N 38°39' W 009°05'0 0.0
2014-Nov-21 03:33N 38°39' W 009°05'0 0.0
2014-Nov-21 02:34N 38°39' W 009°05'0 0.4
2014-Nov-21 01:34N 38°39' W 009°05'0 0.2
2014-Nov-21 00:33N 38°39' W 009°05'0 0.3
2014-Nov-20 23:33N 38°39' W 009°05'1 1.1
2014-Nov-20 22:34N 38°40' W 009°06'0 0.1
2014-Nov-20 21:34N 38°40' W 009°07'2 1.7
2014-Nov-20 20:33N 38°39' W 009°05'0 0.0
2014-Nov-20 19:33N 38°39' W 009°05'1 1.3
2014-Nov-20 18:34N 38°40' W 009°06'3 2.7
2014-Nov-20 17:33N 38°42' W 009°08'4 3.7
2014-Nov-20 16:33N 38°39' W 009°05'1 0.1
2014-Nov-20 09:33N 38°40' W 009°06'3 3.0
2014-Nov-20 08:33N 38°42' W 009°08'0 0.3
2014-Nov-20 07:34N 38°42' W 009°08'4 0.4
2014-Nov-19 21:20N 38°39' W 009°05'3 4.3
2014-Nov-19 20:34N 38°42' W 009°08'1 0.6
2014-Nov-19 19:33N 38°42' W 009°08'0 0.2
2014-Nov-19 18:34N 38°42' W 009°08'2 2.3
2014-Nov-19 17:34N 38°40' W 009°07'2 1.6
2014-Nov-19 16:34N 38°39' W 009°06'1 0.7
2014-Nov-19 15:34N 38°40' W 009°06'1 1.3
2014-Nov-19 14:33N 38°39' W 009°05'0 0.0
2014-Nov-19 13:33N 38°39' W 009°05'0 0.0
2014-Nov-19 12:33N 38°39' W 009°05'0 0.0
2014-Nov-19 11:33N 38°39' W 009°05'1 1.1
2014-Nov-19 10:34N 38°40' W 009°06'0 0.0
2014-Nov-19 09:33N 38°40' W 009°06'1 0.6
2014-Nov-19 08:33N 38°40' W 009°07'2 1.8
2014-Nov-19 07:33N 38°39' W 009°05'0 0.0
2014-Nov-19 06:34N 38°39' W 009°05'0 0.0
2014-Nov-19 00:10N 38°39' W 009°05'4 6.5
2014-Nov-18 23:34N 38°42' W 009°08'1 1.3
2014-Nov-18 22:33N 38°41' W 009°08'0 0.1
2014-Nov-18 21:34N 38°41' W 009°08'  

Dump ship's entire track history